Andrews, Texas
Current Conditions -  °F | °C
As of 9:55 PM on Saturday 20 Dec 2014 (Local Time) from KE11 Reporting Station
Clear Clear  
Wind Chill: 38°   Ceiling: Unl
Heat Index: 42°   Visibility: 10mi
Dew Point: 38°   Wind: 6mph
Humidity: 88%   Direction: 190°S
Pressure: 30.06"   Gusts: NA
Location:  32.32°N, 102.54°W
Report Text: KE11 210355Z AUTO 19005KT 10SM CLR 06/04 A3006 RMK AO2 T00550036
Loading
Personal Weather Stations






























Interactive Weather Map New forecast layout! Learn more

10-Day Weather Forecast

Advertisements
Track Severe Weather on mobile